createdAt,value
2019-02-17T00:00:31.808Z,83.60
2019-02-17T00:03:00.742Z,83.80
2019-02-17T00:05:29.425Z,84.80
2019-02-17T00:07:58.205Z,84.00
2019-02-17T00:10:26.865Z,83.70
2019-02-17T00:12:55.591Z,84.00
2019-02-17T00:15:24.310Z,84.10
2019-02-17T00:17:53.467Z,84.30
2019-02-17T00:20:22.522Z,84.30
2019-02-17T00:22:51.462Z,84.40
2019-02-17T00:25:20.641Z,84.70
2019-02-17T00:27:49.334Z,84.90
2019-02-17T00:30:18.403Z,85.10
2019-02-17T00:32:47.058Z,85.50
2019-02-17T00:35:15.730Z,85.40
2019-02-17T00:37:44.740Z,85.60
2019-02-17T00:40:13.408Z,85.90
2019-02-17T00:42:42.294Z,86.10
2019-02-17T00:45:11.247Z,86.20
2019-02-17T00:47:39.914Z,86.40
2019-02-17T00:50:09.399Z,86.20
2019-02-17T00:52:38.818Z,86.20
2019-02-17T00:55:07.680Z,87.10
2019-02-17T00:57:36.501Z,86.80
2019-02-17T01:00:05.811Z,86.70
2019-02-17T01:02:34.697Z,86.70
2019-02-17T01:05:03.597Z,86.50
2019-02-17T01:07:32.514Z,86.50
2019-02-17T01:10:01.183Z,86.50
2019-02-17T01:12:30.067Z,86.50
2019-02-17T01:14:59.247Z,86.60
2019-02-17T01:17:27.954Z,86.50
2019-02-17T01:19:56.607Z,87.00
2019-02-17T01:22:25.606Z,87.30
2019-02-17T01:24:54.270Z,87.50
2019-02-17T01:27:22.978Z,87.60
2019-02-17T01:29:51.690Z,87.30
2019-02-17T01:32:20.351Z,87.20
2019-02-17T01:34:49.289Z,87.00
2019-02-17T01:37:18.266Z,87.00
2019-02-17T01:39:56.851Z,87.10
2019-02-17T01:42:25.938Z,87.00
2019-02-17T01:44:54.615Z,87.00
2019-02-17T01:47:23.377Z,87.10
2019-02-17T01:49:52.278Z,86.90
2019-02-17T01:52:21.026Z,87.10
2019-02-17T01:54:49.687Z,87.00
2019-02-17T01:57:18.394Z,87.10
2019-02-17T01:59:47.344Z,87.00
2019-02-17T02:02:16.342Z,87.20
2019-02-17T02:04:45.564Z,87.20
2019-02-17T02:07:14.311Z,87.40
2019-02-17T02:09:42.962Z,87.30
2019-02-17T02:12:11.751Z,87.60
2019-02-17T02:14:40.474Z,87.70
2019-02-17T02:17:11.214Z,87.60
2019-02-17T02:19:40.445Z,87.70
2019-02-17T02:22:09.112Z,87.70
2019-02-17T02:24:37.842Z,87.70
2019-02-17T02:27:06.514Z,87.60
2019-02-17T02:29:41.150Z,87.40
2019-02-17T02:32:05.566Z,87.50
2019-02-17T02:34:34.296Z,87.70
2019-02-17T02:37:03.058Z,87.80
2019-02-17T02:39:32.600Z,87.90
2019-02-17T02:42:01.582Z,88.10
2019-02-17T02:44:30.285Z,88.40
2019-02-17T02:46:58.970Z,88.30
2019-02-17T02:49:27.906Z,88.70
2019-02-17T02:51:56.666Z,88.70
2019-02-17T02:54:25.572Z,88.60
2019-02-17T02:56:54.566Z,88.40
2019-02-17T02:59:23.699Z,88.40
2019-02-17T03:01:53.315Z,88.70
2019-02-17T03:04:22.169Z,88.70
2019-02-17T03:07:02.435Z,88.60
2019-02-17T03:09:31.343Z,88.70
2019-02-17T03:12:00.264Z,88.50
2019-02-17T03:14:28.998Z,88.70
2019-02-17T03:16:57.755Z,89.00
2019-02-17T03:19:26.421Z,89.00
2019-02-17T03:21:55.115Z,89.00
2019-02-17T03:24:23.814Z,89.00
2019-02-17T03:26:52.476Z,89.20
2019-02-17T03:29:22.175Z,89.30
2019-02-17T03:31:51.609Z,89.30
2019-02-17T03:34:20.417Z,89.40
2019-02-17T03:36:49.170Z,89.40
2019-02-17T03:39:17.847Z,89.50
2019-02-17T03:41:46.523Z,89.60
2019-02-17T03:44:15.485Z,89.90
2019-02-17T03:46:44.425Z,89.90
2019-02-17T03:49:13.396Z,90.00
2019-02-17T03:51:42.130Z,90.00
2019-02-17T03:54:11.178Z,90.00
2019-02-17T03:56:39.857Z,90.00
2019-02-17T03:59:08.518Z,90.00
2019-02-17T04:01:37.431Z,90.10
2019-02-17T04:04:07.054Z,90.20
2019-02-17T04:06:35.739Z,90.20
2019-02-17T04:09:06.906Z,90.30
2019-02-17T04:11:35.561Z,90.40
2019-02-17T04:14:04.254Z,90.30
2019-02-17T04:16:33.553Z,90.30
2019-02-17T04:19:02.224Z,90.30
2019-02-17T04:21:33.357Z,90.30
2019-02-17T04:24:01.574Z,90.40
2019-02-17T04:26:30.806Z,90.40
2019-02-17T04:28:59.461Z,90.50
2019-02-17T04:31:29.324Z,90.50
2019-02-17T04:33:58.753Z,90.40
2019-02-17T04:36:27.830Z,90.50
2019-02-17T04:38:59.358Z,90.50
2019-02-17T04:41:28.077Z,90.60
2019-02-17T04:43:57.077Z,90.60
2019-02-17T04:46:26.230Z,90.50
2019-02-17T04:48:54.895Z,90.60
2019-02-17T04:51:23.570Z,90.70
2019-02-17T04:53:52.658Z,90.80
2019-02-17T04:56:21.320Z,90.90
2019-02-17T04:58:49.968Z,90.80
2019-02-17T05:01:18.656Z,90.80
2019-02-17T05:03:47.384Z,90.70
2019-02-17T05:06:17.012Z,90.70
2019-02-17T05:08:45.927Z,90.80
2019-02-17T05:11:14.585Z,90.80
2019-02-17T05:13:43.471Z,90.90
2019-02-17T05:16:12.400Z,90.90
2019-02-17T05:18:41.377Z,90.80
2019-02-17T05:21:10.374Z,90.80
2019-02-17T05:23:39.131Z,90.80
2019-02-17T05:26:07.785Z,90.90
2019-02-17T05:28:36.430Z,90.90
2019-02-17T05:31:05.334Z,91.00
2019-02-17T05:33:34.234Z,91.10
2019-02-17T05:36:02.909Z,91.00
2019-02-17T05:38:31.670Z,91.10
2019-02-17T05:41:03.049Z,91.20
2019-02-17T05:43:31.940Z,91.10
2019-02-17T05:46:00.953Z,91.10
2019-02-17T05:48:29.646Z,91.20
2019-02-17T05:50:58.556Z,91.30
2019-02-17T05:53:27.293Z,91.30
2019-02-17T05:55:56.064Z,91.30
2019-02-17T05:58:24.772Z,91.30
2019-02-17T06:01:03.436Z,91.40
2019-02-17T06:03:24.089Z,91.40
2019-02-17T06:05:52.827Z,91.40
2019-02-17T06:08:23.783Z,91.40
2019-02-17T06:10:52.446Z,91.30
2019-02-17T06:13:22.944Z,91.20
2019-02-17T06:15:51.686Z,91.30
2019-02-17T06:18:20.576Z,91.40
2019-02-17T06:20:49.239Z,91.40
2019-02-17T06:23:17.947Z,91.30
2019-02-17T06:25:46.613Z,91.30
2019-02-17T06:28:15.589Z,91.10
2019-02-17T06:30:44.358Z,91.10
2019-02-17T06:33:13.241Z,91.00
2019-02-17T06:35:42.284Z,91.00
2019-02-17T06:38:11.930Z,90.90
2019-02-17T06:40:40.745Z,90.70
2019-02-17T06:43:09.638Z,90.70
2019-02-17T06:45:38.713Z,90.20
2019-02-17T06:48:07.826Z,90.00
2019-02-17T06:50:36.605Z,88.30
2019-02-17T06:53:05.544Z,87.70
2019-02-17T06:55:42.326Z,85.90
2019-02-17T06:58:11.221Z,84.60
2019-02-17T07:00:45.375Z,83.40
2019-02-17T07:03:14.508Z,82.60
2019-02-17T07:06:05.176Z,81.10
2019-02-17T07:08:34.181Z,79.30
2019-02-17T07:11:03.796Z,76.50
2019-02-17T07:13:32.758Z,74.30
2019-02-17T07:16:01.640Z,72.90
2019-02-17T07:18:30.581Z,72.10
2019-02-17T07:20:59.618Z,70.20
2019-02-17T07:23:28.269Z,68.50
2019-02-17T07:25:57.001Z,67.10
2019-02-17T07:28:25.665Z,65.00
2019-02-17T07:30:54.573Z,63.70
2019-02-17T07:33:23.255Z,61.50
2019-02-17T07:35:52.191Z,59.20
2019-02-17T07:38:21.154Z,58.60
2019-02-17T07:40:50.735Z,58.00
2019-02-17T07:43:21.012Z,56.90
2019-02-17T07:45:49.785Z,56.10
2019-02-17T07:48:19.064Z,55.00
2019-02-17T07:50:47.762Z,53.20
2019-02-17T07:53:16.691Z,51.90
2019-02-17T07:55:45.962Z,51.20
2019-02-17T07:58:14.693Z,51.20
2019-02-17T08:00:43.374Z,51.20
2019-02-17T08:03:12.291Z,49.80
2019-02-17T08:05:41.566Z,48.30
2019-02-17T08:08:10.850Z,48.00
2019-02-17T08:10:40.112Z,47.20
2019-02-17T08:13:09.836Z,46.10
2019-02-17T08:15:38.506Z,45.80
2019-02-17T08:18:07.189Z,44.80
2019-02-17T08:20:36.575Z,44.40
2019-02-17T08:23:05.670Z,43.60
2019-02-17T08:25:34.354Z,43.30
2019-02-17T08:28:03.166Z,44.30
2019-02-17T08:30:32.168Z,44.20
2019-02-17T08:33:00.913Z,43.70
2019-02-17T08:35:30.067Z,43.20
2019-02-17T08:37:59.598Z,42.10
2019-02-17T08:40:28.462Z,40.80
2019-02-17T08:42:57.722Z,39.90
2019-02-17T08:45:26.385Z,39.30
2019-02-17T08:47:55.292Z,38.10
2019-02-17T08:50:24.017Z,37.30
2019-02-17T08:52:52.726Z,36.90
2019-02-17T08:55:21.454Z,35.20
2019-02-17T08:57:50.134Z,35.50
2019-02-17T09:00:18.795Z,35.20
2019-02-17T09:02:48.072Z,35.10
2019-02-17T09:05:17.387Z,35.80
2019-02-17T09:07:46.078Z,36.00
2019-02-17T09:10:14.829Z,35.50
2019-02-17T09:12:44.334Z,35.70
2019-02-17T09:15:13.242Z,34.70
2019-02-17T09:17:41.905Z,35.00
2019-02-17T09:20:11.301Z,35.20
2019-02-17T09:22:40.076Z,35.10
2019-02-17T09:25:09.813Z,35.60
2019-02-17T09:27:38.584Z,35.80
2019-02-17T09:30:11.222Z,35.80
2019-02-17T09:32:40.230Z,35.00
2019-02-17T09:35:09.076Z,35.10
2019-02-17T09:37:37.783Z,35.40
2019-02-17T09:40:07.730Z,35.20
2019-02-17T09:42:36.453Z,36.20
2019-02-17T09:45:05.365Z,35.50
2019-02-17T09:47:34.050Z,35.50
2019-02-17T09:50:02.742Z,35.40
2019-02-17T09:52:31.448Z,35.90
2019-02-17T09:55:00.400Z,34.60
2019-02-17T09:57:29.290Z,35.40
2019-02-17T09:59:58.102Z,35.70
2019-02-17T10:02:32.128Z,35.50
2019-02-17T10:05:01.185Z,35.10
2019-02-17T10:07:30.182Z,35.50
2019-02-17T10:09:59.077Z,35.50
2019-02-17T10:12:29.634Z,35.30
2019-02-17T10:15:00.038Z,34.20
2019-02-17T10:17:32.634Z,34.00
2019-02-17T10:20:01.645Z,33.30
2019-02-17T10:22:33.112Z,32.90
2019-02-17T10:25:21.664Z,33.00
2019-02-17T10:27:50.329Z,32.80
2019-02-17T10:30:19.433Z,31.80
2019-02-17T10:32:48.695Z,31.50
2019-02-17T10:35:17.421Z,31.60
2019-02-17T10:37:47.251Z,32.60
2019-02-17T10:40:16.310Z,33.00
2019-02-17T10:42:48.570Z,33.90
2019-02-17T10:45:17.562Z,33.90
2019-02-17T10:47:46.578Z,34.20
2019-02-17T10:50:15.956Z,33.70
2019-02-17T10:52:44.674Z,33.70
2019-02-17T10:55:13.669Z,33.80
2019-02-17T10:57:45.509Z,34.10
2019-02-17T11:00:16.251Z,34.20
2019-02-17T11:02:47.411Z,34.50
2019-02-17T11:05:16.102Z,35.00
2019-02-17T11:07:44.856Z,37.10
2019-02-17T11:10:13.769Z,39.20
2019-02-17T11:12:42.514Z,41.40
2019-02-17T11:15:13.306Z,42.80
2019-02-17T11:17:42.126Z,43.70
2019-02-17T11:20:11.206Z,44.20
2019-02-17T11:22:40.075Z,44.70
2019-02-17T11:25:08.989Z,45.80
2019-02-17T11:27:37.817Z,46.00
2019-02-17T11:30:08.701Z,46.70
2019-02-17T11:32:37.907Z,47.30
2019-02-17T11:35:09.132Z,47.60
2019-02-17T11:37:37.843Z,48.30
2019-02-17T11:40:08.519Z,48.70
2019-02-17T11:42:37.598Z,48.20
2019-02-17T11:45:08.390Z,49.80
2019-02-17T11:47:37.074Z,49.30
2019-02-17T11:50:05.973Z,49.60
2019-02-17T11:52:34.678Z,49.10
2019-02-17T11:55:03.489Z,48.80
2019-02-17T11:57:32.503Z,49.10
2019-02-17T12:00:01.492Z,50.20
2019-02-17T12:02:30.572Z,50.30
2019-02-17T12:04:59.703Z,50.20
2019-02-17T12:07:28.605Z,50.20
2019-02-17T12:09:57.455Z,50.10
2019-02-17T12:12:29.332Z,50.30
2019-02-17T12:14:58.087Z,50.40
2019-02-17T12:17:28.438Z,50.10
2019-02-17T12:20:05.650Z,50.90
2019-02-17T12:22:43.014Z,50.90
2019-02-17T12:25:23.205Z,52.20
2019-02-17T12:27:56.350Z,53.20
2019-02-17T12:30:25.875Z,53.80
2019-02-17T12:32:54.710Z,53.00
2019-02-17T12:35:23.520Z,53.20
2019-02-17T12:37:52.228Z,52.20
2019-02-17T12:40:21.316Z,52.60
2019-02-17T12:42:51.117Z,52.10
2019-02-17T12:45:20.209Z,51.80
2019-02-17T12:47:57.505Z,51.60
2019-02-17T12:50:20.015Z,51.80
2019-02-17T12:52:48.770Z,51.50
2019-02-17T12:55:20.769Z,51.80
2019-02-17T12:57:49.453Z,51.80
2019-02-17T13:00:18.771Z,51.60
2019-02-17T13:02:48.197Z,51.60
2019-02-17T13:05:16.979Z,51.40
2019-02-17T13:07:45.879Z,52.00
2019-02-17T13:10:15.694Z,52.20
2019-02-17T13:12:44.497Z,52.30
2019-02-17T13:15:13.317Z,52.50
2019-02-17T13:17:42.051Z,52.60
2019-02-17T13:20:12.997Z,52.40
2019-02-17T13:22:41.856Z,52.30
2019-02-17T13:25:11.505Z,52.60
2019-02-17T13:27:40.503Z,52.40
2019-02-17T13:30:13.026Z,52.50
2019-02-17T13:32:41.776Z,52.80
2019-02-17T13:35:11.484Z,52.30
2019-02-17T13:37:40.199Z,51.90
2019-02-17T13:40:10.002Z,51.60
2019-02-17T13:42:38.979Z,51.40
2019-02-17T13:45:09.373Z,51.30
2019-02-17T13:47:38.491Z,51.30
2019-02-17T13:50:09.000Z,51.40
2019-02-17T13:52:37.714Z,50.90
2019-02-17T13:55:07.202Z,51.00
2019-02-17T13:57:36.277Z,51.50
2019-02-17T14:00:06.882Z,52.00
2019-02-17T14:02:35.594Z,52.10
2019-02-17T14:05:04.374Z,52.80
2019-02-17T14:07:33.105Z,53.50
2019-02-17T14:10:02.066Z,53.60
2019-02-17T14:12:31.016Z,53.30
2019-02-17T14:14:59.904Z,53.80
2019-02-17T14:17:28.612Z,54.10
2019-02-17T14:19:57.688Z,54.20
2019-02-17T14:22:29.406Z,54.30
2019-02-17T14:24:58.130Z,54.50
2019-02-17T14:27:31.671Z,54.60
2019-02-17T14:30:00.914Z,54.80
2019-02-17T14:32:35.453Z,55.00
2019-02-17T14:35:04.294Z,55.40
2019-02-17T14:37:32.961Z,55.60
2019-02-17T14:40:01.695Z,55.80
2019-02-17T14:42:33.611Z,56.10
2019-02-17T14:45:02.298Z,56.00
2019-02-17T14:47:31.018Z,56.10
2019-02-17T14:49:59.775Z,56.50
2019-02-17T14:52:28.553Z,56.20
2019-02-17T14:54:57.518Z,56.40
2019-02-17T14:57:26.577Z,56.10
2019-02-17T14:59:55.264Z,56.50
2019-02-17T15:02:24.501Z,56.80
2019-02-17T15:04:53.456Z,56.70
2019-02-17T15:07:25.535Z,56.90
2019-02-17T15:09:54.474Z,57.20
2019-02-17T15:12:24.728Z,57.70
2019-02-17T15:14:53.831Z,57.80
2019-02-17T15:17:23.736Z,58.10
2019-02-17T15:19:53.046Z,58.20
2019-02-17T15:22:21.955Z,58.30
2019-02-17T15:24:51.222Z,58.30
2019-02-17T15:27:20.122Z,58.40
2019-02-17T15:29:49.849Z,58.50
2019-02-17T15:32:18.999Z,59.10
2019-02-17T15:34:47.703Z,58.90
2019-02-17T15:37:19.729Z,58.90
2019-02-17T15:39:49.000Z,59.10
2019-02-17T15:42:20.899Z,59.30
2019-02-17T15:44:49.630Z,59.40
2019-02-17T15:47:18.628Z,59.60
2019-02-17T15:49:47.303Z,59.60
2019-02-17T15:52:16.086Z,59.90
2019-02-17T15:54:45.458Z,60.00
2019-02-17T15:57:14.592Z,60.20
2019-02-17T15:59:43.493Z,60.30
2019-02-17T16:02:12.591Z,60.70
2019-02-17T16:04:41.251Z,61.00
2019-02-17T16:07:10.170Z,61.10
2019-02-17T16:09:39.140Z,62.00
2019-02-17T16:12:09.519Z,62.40
2019-02-17T16:14:38.182Z,62.50
2019-02-17T16:17:06.926Z,62.90
2019-02-17T16:19:35.717Z,63.50
2019-02-17T16:22:04.666Z,63.90
2019-02-17T16:24:34.098Z,64.00
2019-02-17T16:27:03.066Z,64.60
2019-02-17T16:29:31.749Z,65.00
2019-02-17T16:32:00.658Z,65.30
2019-02-17T16:34:38.219Z,65.70
2019-02-17T16:37:00.259Z,65.90
2019-02-17T16:39:30.395Z,65.80
2019-02-17T16:42:05.301Z,66.00
2019-02-17T16:44:34.575Z,66.00
2019-02-17T16:47:03.546Z,66.20
2019-02-17T16:49:32.250Z,66.40
2019-02-17T16:52:01.050Z,66.20
2019-02-17T16:54:30.003Z,65.80
2019-02-17T16:56:58.705Z,65.70
2019-02-17T16:59:30.680Z,66.80
2019-02-17T17:01:59.371Z,66.80
2019-02-17T17:04:28.165Z,67.30
2019-02-17T17:06:56.883Z,67.40
2019-02-17T17:09:25.951Z,67.50
2019-02-17T17:11:54.693Z,67.50
2019-02-17T17:14:23.688Z,67.80
2019-02-17T17:16:52.520Z,67.50
2019-02-17T17:19:21.465Z,67.70
2019-02-17T17:21:50.174Z,67.50
2019-02-17T17:24:19.142Z,67.50
2019-02-17T17:26:49.494Z,67.70
2019-02-17T17:29:18.563Z,67.80
2019-02-17T17:31:47.658Z,68.10
2019-02-17T17:34:17.258Z,68.50
2019-02-17T17:36:46.087Z,68.90
2019-02-17T17:39:15.162Z,69.10
2019-02-17T17:41:43.861Z,69.50
2019-02-17T17:44:12.541Z,69.60
2019-02-17T17:46:41.250Z,69.50
2019-02-17T17:49:19.036Z,69.70
2019-02-17T17:51:41.425Z,70.20
2019-02-17T17:54:10.699Z,70.80
2019-02-17T17:56:39.372Z,72.00
2019-02-17T17:59:08.043Z,71.40
2019-02-17T18:01:36.745Z,71.40
2019-02-17T18:04:05.520Z,71.50
2019-02-17T18:06:34.200Z,71.90
2019-02-17T18:09:03.140Z,72.30
2019-02-17T18:11:31.894Z,72.90
2019-02-17T18:14:00.842Z,73.30
2019-02-17T18:16:29.600Z,73.90
2019-02-17T18:18:58.547Z,74.50
2019-02-17T18:21:27.235Z,75.00
2019-02-17T18:23:55.994Z,75.10
2019-02-17T18:26:24.721Z,75.30
2019-02-17T18:28:53.441Z,75.70
2019-02-17T18:31:25.557Z,75.90
2019-02-17T18:33:54.368Z,76.10
2019-02-17T18:36:23.648Z,76.30
2019-02-17T18:38:52.654Z,76.20
2019-02-17T18:41:21.357Z,76.30
2019-02-17T18:43:50.554Z,76.60
2019-02-17T18:46:19.354Z,76.70
2019-02-17T18:48:48.020Z,76.90
2019-02-17T18:51:16.707Z,76.90
2019-02-17T18:53:45.645Z,77.10
2019-02-17T18:56:14.302Z,77.30
2019-02-17T18:58:43.021Z,77.60
2019-02-17T19:01:12.031Z,77.90
2019-02-17T19:03:40.767Z,78.40
2019-02-17T19:06:09.691Z,78.40
2019-02-17T19:08:38.698Z,78.10
2019-02-17T19:11:07.403Z,78.50
2019-02-17T19:13:36.330Z,78.40
2019-02-17T19:16:05.046Z,78.70
2019-02-17T19:18:33.742Z,78.70
2019-02-17T19:21:03.009Z,79.00
2019-02-17T19:23:31.806Z,79.00
2019-02-17T19:26:00.743Z,79.10
2019-02-17T19:28:30.308Z,79.30
2019-02-17T19:31:00.386Z,79.70
2019-02-17T19:33:29.336Z,80.00
2019-02-17T19:35:58.257Z,80.30
2019-02-17T19:38:27.156Z,80.40
2019-02-17T19:40:56.118Z,81.00
2019-02-17T19:43:25.079Z,81.20
2019-02-17T19:45:53.780Z,81.50
2019-02-17T19:48:23.433Z,81.80
2019-02-17T19:50:52.251Z,82.10
2019-02-17T19:53:21.257Z,82.50
2019-02-17T19:55:49.941Z,82.90
2019-02-17T19:58:18.614Z,82.90
2019-02-17T20:00:47.351Z,82.80
2019-02-17T20:03:37.095Z,82.90
2019-02-17T20:06:05.882Z,83.20
2019-02-17T20:08:34.551Z,83.60
2019-02-17T20:11:03.259Z,84.00
2019-02-17T20:13:32.401Z,84.00
2019-02-17T20:16:01.060Z,84.30
2019-02-17T20:18:29.715Z,84.20
2019-02-17T20:20:58.439Z,84.30
2019-02-17T20:23:27.190Z,84.70
2019-02-17T20:25:57.855Z,84.80
2019-02-17T20:28:40.668Z,85.20
2019-02-17T20:30:57.073Z,85.20
2019-02-17T20:33:25.734Z,85.40
2019-02-17T20:36:02.371Z,85.30
2019-02-17T20:38:25.166Z,85.50
2019-02-17T20:40:54.182Z,85.60
2019-02-17T20:43:22.872Z,86.10
2019-02-17T20:45:51.790Z,86.20
2019-02-17T20:48:20.514Z,86.10
2019-02-17T20:50:49.741Z,86.20
2019-02-17T20:53:19.234Z,86.20
2019-02-17T20:55:48.540Z,86.20
2019-02-17T20:58:17.698Z,86.30
2019-02-17T21:00:46.731Z,86.50
2019-02-17T21:03:15.438Z,86.40
2019-02-17T21:05:44.153Z,86.70
2019-02-17T21:08:12.841Z,86.70
2019-02-17T21:10:41.510Z,86.80
2019-02-17T21:13:10.193Z,86.90
2019-02-17T21:15:38.898Z,86.80
2019-02-17T21:18:07.583Z,87.10
2019-02-17T21:20:36.539Z,87.10
2019-02-17T21:23:05.222Z,87.30
2019-02-17T21:25:34.369Z,87.40
2019-02-17T21:28:03.430Z,87.50
2019-02-17T21:30:32.401Z,87.30
2019-02-17T21:33:01.094Z,87.80
2019-02-17T21:35:30.055Z,88.60
2019-02-17T21:37:58.847Z,87.80
2019-02-17T21:40:27.546Z,87.80
2019-02-17T21:42:56.490Z,88.30
2019-02-17T21:45:25.172Z,89.20
2019-02-17T21:47:53.830Z,88.60
2019-02-17T21:50:22.801Z,88.80
2019-02-17T21:52:51.497Z,89.00
2019-02-17T21:55:21.556Z,89.00
2019-02-17T21:57:50.923Z,89.10
2019-02-17T22:00:19.834Z,89.40
2019-02-17T22:02:48.512Z,89.20
2019-02-17T22:05:17.350Z,89.20
2019-02-17T22:07:46.076Z,89.20
2019-02-17T22:10:14.970Z,89.20
2019-02-17T22:12:44.291Z,89.50
2019-02-17T22:15:14.488Z,89.40
2019-02-17T22:17:43.442Z,89.40
2019-02-17T22:20:12.363Z,89.80
2019-02-17T22:22:41.083Z,89.70
2019-02-17T22:25:10.095Z,89.50
2019-02-17T22:27:38.790Z,89.80
2019-02-17T22:30:08.323Z,89.80
2019-02-17T22:32:37.020Z,90.00
2019-02-17T22:35:06.802Z,89.90
2019-02-17T22:37:35.457Z,89.80
2019-02-17T22:40:04.326Z,89.70
2019-02-17T22:42:33.242Z,89.80
2019-02-17T22:45:02.288Z,90.00
2019-02-17T22:47:31.245Z,90.20
2019-02-17T22:50:00.343Z,90.20
2019-02-17T22:52:28.982Z,90.10
2019-02-17T22:54:58.165Z,90.20
2019-02-17T22:57:27.666Z,90.10
2019-02-17T22:59:56.382Z,90.20
2019-02-17T23:02:25.479Z,90.30
2019-02-17T23:04:54.442Z,90.20
2019-02-17T23:07:23.373Z,90.20
2019-02-17T23:09:52.058Z,90.30
2019-02-17T23:12:21.392Z,90.10
2019-02-17T23:14:50.275Z,90.10
2019-02-17T23:17:24.245Z,90.20
2019-02-17T23:19:55.625Z,90.30
2019-02-17T23:22:26.451Z,90.40
2019-02-17T23:24:55.290Z,90.50
2019-02-17T23:27:23.983Z,90.60
2019-02-17T23:29:52.709Z,90.50
2019-02-17T23:32:21.646Z,90.50
2019-02-17T23:34:50.635Z,90.50
2019-02-17T23:37:20.066Z,90.40
2019-02-17T23:39:48.945Z,90.50
2019-02-17T23:42:17.902Z,90.40
2019-02-17T23:44:46.633Z,90.40
2019-02-17T23:47:15.531Z,90.40
2019-02-17T23:49:44.202Z,90.40
2019-02-17T23:52:14.019Z,90.40
2019-02-17T23:54:42.818Z,90.30
2019-02-17T23:57:11.851Z,90.40
2019-02-17T23:59:40.566Z,90.50
